sensor_id;sensor_type;location;lat;lon;timestamp;P1;durP1;ratioP1;P2;durP2;ratioP2
727;SDS011;347;48.780;9.158;2023-05-14T00:00:13;13.90;;;13.20;;
727;SDS011;347;48.780;9.158;2023-05-14T00:02:39;14.73;;;13.93;;
727;SDS011;347;48.780;9.158;2023-05-14T00:05:05;13.50;;;12.80;;
727;SDS011;347;48.780;9.158;2023-05-14T00:07:31;14.10;;;13.40;;
727;SDS011;347;48.780;9.158;2023-05-14T00:09:57;15.30;;;14.40;;
727;SDS011;347;48.780;9.158;2023-05-14T00:12:23;14.47;;;13.67;;
727;SDS011;347;48.780;9.158;2023-05-14T00:14:50;13.77;;;13.07;;
727;SDS011;347;48.780;9.158;2023-05-14T00:17:16;13.57;;;12.77;;
727;SDS011;347;48.780;9.158;2023-05-14T00:19:41;14.03;;;13.33;;
727;SDS011;347;48.780;9.158;2023-05-14T00:22:07;14.60;;;13.90;;
727;SDS011;347;48.780;9.158;2023-05-14T00:24:33;14.73;;;13.90;;
727;SDS011;347;48.780;9.158;2023-05-14T00:26:59;15.43;;;14.63;;
727;SDS011;347;48.780;9.158;2023-05-14T00:29:25;14.53;;;13.70;;
727;SDS011;347;48.780;9.158;2023-05-14T00:31:50;15.03;;;14.23;;
727;SDS011;347;48.780;9.158;2023-05-14T00:34:16;14.17;;;13.47;;
727;SDS011;347;48.780;9.158;2023-05-14T00:36:42;14.60;;;13.70;;
727;SDS011;347;48.780;9.158;2023-05-14T00:39:07;15.10;;;14.40;;
727;SDS011;347;48.780;9.158;2023-05-14T00:41:33;15.50;;;14.50;;
727;SDS011;347;48.780;9.158;2023-05-14T00:43:58;14.90;;;14.10;;
727;SDS011;347;48.780;9.158;2023-05-14T00:46:24;13.87;;;13.17;;
727;SDS011;347;48.780;9.158;2023-05-14T00:48:50;13.87;;;13.17;;
727;SDS011;347;48.780;9.158;2023-05-14T00:51:16;14.40;;;13.60;;
727;SDS011;347;48.780;9.158;2023-05-14T00:53:43;15.90;;;14.77;;
727;SDS011;347;48.780;9.158;2023-05-14T00:56:09;14.77;;;13.97;;
727;SDS011;347;48.780;9.158;2023-05-14T00:58:35;15.10;;;14.30;;
727;SDS011;347;48.780;9.158;2023-05-14T01:01:00;15.23;;;14.43;;
727;SDS011;347;48.780;9.158;2023-05-14T01:03:26;15.87;;;14.97;;
727;SDS011;347;48.780;9.158;2023-05-14T01:10:55;16.93;;;16.07;;
727;SDS011;347;48.780;9.158;2023-05-14T01:13:43;15.50;;;14.60;;
727;SDS011;347;48.780;9.158;2023-05-14T01:16:17;16.87;;;15.97;;
727;SDS011;347;48.780;9.158;2023-05-14T01:18:43;16.10;;;15.30;;
727;SDS011;347;48.780;9.158;2023-05-14T01:21:46;16.00;;;15.20;;
727;SDS011;347;48.780;9.158;2023-05-14T01:24:07;14.73;;;13.93;;
727;SDS011;347;48.780;9.158;2023-05-14T01:26:33;15.63;;;14.83;;
727;SDS011;347;48.780;9.158;2023-05-14T01:29:00;16.00;;;15.00;;
727;SDS011;347;48.780;9.158;2023-05-14T01:31:35;16.13;;;15.33;;
727;SDS011;347;48.780;9.158;2023-05-14T01:34:03;15.70;;;14.80;;
727;SDS011;347;48.780;9.158;2023-05-14T01:36:30;14.70;;;13.90;;
727;SDS011;347;48.780;9.158;2023-05-14T01:38:57;14.70;;;14.00;;
727;SDS011;347;48.780;9.158;2023-05-14T01:41:24;16.20;;;15.20;;
727;SDS011;347;48.780;9.158;2023-05-14T01:43:51;16.87;;;15.97;;
727;SDS011;347;48.780;9.158;2023-05-14T01:46:17;15.60;;;14.80;;
727;SDS011;347;48.780;9.158;2023-05-14T01:48:43;16.27;;;15.37;;
727;SDS011;347;48.780;9.158;2023-05-14T01:51:09;14.90;;;14.13;;
727;SDS011;347;48.780;9.158;2023-05-14T01:53:34;16.37;;;15.57;;
727;SDS011;347;48.780;9.158;2023-05-14T01:56:00;16.03;;;15.23;;
727;SDS011;347;48.780;9.158;2023-05-14T01:58:26;15.53;;;14.67;;
727;SDS011;347;48.780;9.158;2023-05-14T02:00:51;16.53;;;15.53;;
727;SDS011;347;48.780;9.158;2023-05-14T02:03:17;16.23;;;15.43;;
727;SDS011;347;48.780;9.158;2023-05-14T02:05:42;16.47;;;15.67;;
727;SDS011;347;48.780;9.158;2023-05-14T02:08:08;15.90;;;14.90;;
727;SDS011;347;48.780;9.158;2023-05-14T02:10:33;15.60;;;14.90;;
727;SDS011;347;48.780;9.158;2023-05-14T02:12:59;16.43;;;15.53;;
727;SDS011;347;48.780;9.158;2023-05-14T02:15:25;15.80;;;14.90;;
727;SDS011;347;48.780;9.158;2023-05-14T02:17:50;16.37;;;15.47;;
727;SDS011;347;48.780;9.158;2023-05-14T02:20:16;15.60;;;14.80;;
727;SDS011;347;48.780;9.158;2023-05-14T02:22:41;16.83;;;15.73;;
727;SDS011;347;48.780;9.158;2023-05-14T02:25:09;15.80;;;15.00;;
727;SDS011;347;48.780;9.158;2023-05-14T02:27:35;15.10;;;14.40;;
727;SDS011;347;48.780;9.158;2023-05-14T02:30:01;16.57;;;15.67;;
727;SDS011;347;48.780;9.158;2023-05-14T02:32:27;16.30;;;15.40;;
727;SDS011;347;48.780;9.158;2023-05-14T02:34:55;16.03;;;15.03;;
727;SDS011;347;48.780;9.158;2023-05-14T02:37:22;15.13;;;14.43;;
727;SDS011;347;48.780;9.158;2023-05-14T02:39:48;15.90;;;15.00;;
727;SDS011;347;48.780;9.158;2023-05-14T02:42:13;15.57;;;14.67;;
727;SDS011;347;48.780;9.158;2023-05-14T02:44:39;15.67;;;14.77;;
727;SDS011;347;48.780;9.158;2023-05-14T02:47:04;16.80;;;15.70;;
727;SDS011;347;48.780;9.158;2023-05-14T02:49:30;16.07;;;15.27;;
727;SDS011;347;48.780;9.158;2023-05-14T02:51:56;15.20;;;14.30;;
727;SDS011;347;48.780;9.158;2023-05-14T02:54:22;16.37;;;15.27;;
727;SDS011;347;48.780;9.158;2023-05-14T02:56:47;16.77;;;15.77;;
727;SDS011;347;48.780;9.158;2023-05-14T02:59:13;15.87;;;15.07;;
727;SDS011;347;48.780;9.158;2023-05-14T03:01:38;15.53;;;14.43;;
727;SDS011;347;48.780;9.158;2023-05-14T03:04:04;16.87;;;15.93;;
727;SDS011;347;48.780;9.158;2023-05-14T03:06:29;15.13;;;14.33;;
727;SDS011;347;48.780;9.158;2023-05-14T03:08:55;15.93;;;15.03;;
727;SDS011;347;48.780;9.158;2023-05-14T03:11:21;15.17;;;14.20;;
727;SDS011;347;48.780;9.158;2023-05-14T03:13:46;15.70;;;14.80;;
727;SDS011;347;48.780;9.158;2023-05-14T03:16:12;16.50;;;15.70;;
727;SDS011;347;48.780;9.158;2023-05-14T03:18:38;16.00;;;15.10;;
727;SDS011;347;48.780;9.158;2023-05-14T03:21:03;15.47;;;14.67;;
727;SDS011;347;48.780;9.158;2023-05-14T03:23:29;16.87;;;15.83;;
727;SDS011;347;48.780;9.158;2023-05-14T03:25:56;15.20;;;14.40;;
727;SDS011;347;48.780;9.158;2023-05-14T03:28:21;16.10;;;15.10;;
727;SDS011;347;48.780;9.158;2023-05-14T03:30:47;17.60;;;16.50;;
727;SDS011;347;48.780;9.158;2023-05-14T03:33:12;15.43;;;14.63;;
727;SDS011;347;48.780;9.158;2023-05-14T03:35:38;17.43;;;16.37;;
727;SDS011;347;48.780;9.158;2023-05-14T03:38:03;17.17;;;16.17;;
727;SDS011;347;48.780;9.158;2023-05-14T03:40:29;15.83;;;14.97;;
727;SDS011;347;48.780;9.158;2023-05-14T03:42:55;15.60;;;14.80;;
727;SDS011;347;48.780;9.158;2023-05-14T03:45:20;15.23;;;14.27;;
727;SDS011;347;48.780;9.158;2023-05-14T03:47:46;16.63;;;15.63;;
727;SDS011;347;48.780;9.158;2023-05-14T03:50:12;14.90;;;14.10;;
727;SDS011;347;48.780;9.158;2023-05-14T03:52:37;15.10;;;14.20;;
727;SDS011;347;48.780;9.158;2023-05-14T03:55:03;16.17;;;15.27;;
727;SDS011;347;48.780;9.158;2023-05-14T03:57:29;16.60;;;15.70;;
727;SDS011;347;48.780;9.158;2023-05-14T03:59:54;16.07;;;15.07;;
727;SDS011;347;48.780;9.158;2023-05-14T04:02:20;16.80;;;15.90;;
727;SDS011;347;48.780;9.158;2023-05-14T04:04:46;15.87;;;14.97;;
727;SDS011;347;48.780;9.158;2023-05-14T04:07:11;14.77;;;13.97;;
727;SDS011;347;48.780;9.158;2023-05-14T04:09:37;16.43;;;15.23;;
727;SDS011;347;48.780;9.158;2023-05-14T04:12:02;16.33;;;15.43;;
727;SDS011;347;48.780;9.158;2023-05-14T04:14:28;14.83;;;14.03;;
727;SDS011;347;48.780;9.158;2023-05-14T04:16:54;15.77;;;14.97;;
727;SDS011;347;48.780;9.158;2023-05-14T04:19:19;15.60;;;14.77;;
727;SDS011;347;48.780;9.158;2023-05-14T04:21:45;15.13;;;14.40;;
727;SDS011;347;48.780;9.158;2023-05-14T04:24:10;15.30;;;14.50;;
727;SDS011;347;48.780;9.158;2023-05-14T04:26:36;14.80;;;13.90;;
727;SDS011;347;48.780;9.158;2023-05-14T04:29:01;15.40;;;14.70;;
727;SDS011;347;48.780;9.158;2023-05-14T04:31:27;16.03;;;15.13;;
727;SDS011;347;48.780;9.158;2023-05-14T04:33:53;15.67;;;14.80;;
727;SDS011;347;48.780;9.158;2023-05-14T04:36:19;15.20;;;14.40;;
727;SDS011;347;48.780;9.158;2023-05-14T04:38:45;15.80;;;14.90;;
727;SDS011;347;48.780;9.158;2023-05-14T04:41:10;15.63;;;14.73;;
727;SDS011;347;48.780;9.158;2023-05-14T04:43:36;15.87;;;15.07;;
727;SDS011;347;48.780;9.158;2023-05-14T04:46:01;15.37;;;14.63;;
727;SDS011;347;48.780;9.158;2023-05-14T04:48:27;15.73;;;14.83;;
727;SDS011;347;48.780;9.158;2023-05-14T04:50:53;15.30;;;14.30;;
727;SDS011;347;48.780;9.158;2023-05-14T04:53:18;15.57;;;14.67;;
727;SDS011;347;48.780;9.158;2023-05-14T04:55:44;14.83;;;14.03;;
727;SDS011;347;48.780;9.158;2023-05-14T04:58:09;15.27;;;14.30;;
727;SDS011;347;48.780;9.158;2023-05-14T05:00:35;16.00;;;15.20;;
727;SDS011;347;48.780;9.158;2023-05-14T05:03:00;15.70;;;14.80;;
727;SDS011;347;48.780;9.158;2023-05-14T05:05:26;14.60;;;13.70;;
727;SDS011;347;48.780;9.158;2023-05-14T05:07:52;15.63;;;14.83;;
727;SDS011;347;48.780;9.158;2023-05-14T05:10:17;15.47;;;14.70;;
727;SDS011;347;48.780;9.158;2023-05-14T05:12:43;16.00;;;15.20;;
727;SDS011;347;48.780;9.158;2023-05-14T05:15:09;14.90;;;14.10;;
727;SDS011;347;48.780;9.158;2023-05-14T05:17:34;15.27;;;14.00;;
727;SDS011;347;48.780;9.158;2023-05-14T05:20:00;14.80;;;14.07;;
727;SDS011;347;48.780;9.158;2023-05-14T05:22:26;14.13;;;13.13;;
727;SDS011;347;48.780;9.158;2023-05-14T05:24:52;15.87;;;15.00;;
727;SDS011;347;48.780;9.158;2023-05-14T05:27:17;16.53;;;15.50;;
727;SDS011;347;48.780;9.158;2023-05-14T05:29:44;14.67;;;13.93;;
727;SDS011;347;48.780;9.158;2023-05-14T05:32:10;16.40;;;15.40;;
727;SDS011;347;48.780;9.158;2023-05-14T05:34:36;15.23;;;14.40;;
727;SDS011;347;48.780;9.158;2023-05-14T05:37:01;15.00;;;14.20;;
727;SDS011;347;48.780;9.158;2023-05-14T05:39:27;15.60;;;14.80;;
727;SDS011;347;48.780;9.158;2023-05-14T05:41:58;14.83;;;14.03;;
727;SDS011;347;48.780;9.158;2023-05-14T05:44:25;15.20;;;14.40;;
727;SDS011;347;48.780;9.158;2023-05-14T05:46:50;15.33;;;14.53;;
727;SDS011;347;48.780;9.158;2023-05-14T05:49:16;15.47;;;14.27;;
727;SDS011;347;48.780;9.158;2023-05-14T05:51:41;16.17;;;15.27;;
727;SDS011;347;48.780;9.158;2023-05-14T05:54:07;15.00;;;14.00;;
727;SDS011;347;48.780;9.158;2023-05-14T05:56:33;14.87;;;14.07;;
727;SDS011;347;48.780;9.158;2023-05-14T05:58:58;15.77;;;14.87;;
727;SDS011;347;48.780;9.158;2023-05-14T06:01:24;16.00;;;14.80;;
727;SDS011;347;48.780;9.158;2023-05-14T06:03:50;15.23;;;14.43;;
727;SDS011;347;48.780;9.158;2023-05-14T06:06:16;15.00;;;14.10;;
727;SDS011;347;48.780;9.158;2023-05-14T06:08:42;16.37;;;15.40;;
727;SDS011;347;48.780;9.158;2023-05-14T06:11:07;15.13;;;14.23;;
727;SDS011;347;48.780;9.158;2023-05-14T06:13:33;15.57;;;14.67;;
727;SDS011;347;48.780;9.158;2023-05-14T06:15:58;15.83;;;14.90;;
727;SDS011;347;48.780;9.158;2023-05-14T06:18:24;15.17;;;14.37;;
727;SDS011;347;48.780;9.158;2023-05-14T06:20:50;14.90;;;14.03;;
727;SDS011;347;48.780;9.158;2023-05-14T06:23:15;15.17;;;14.27;;
727;SDS011;347;48.780;9.158;2023-05-14T06:25:41;14.80;;;13.90;;
727;SDS011;347;48.780;9.158;2023-05-14T06:28:06;15.13;;;14.37;;
727;SDS011;347;48.780;9.158;2023-05-14T06:30:32;15.93;;;14.93;;
727;SDS011;347;48.780;9.158;2023-05-14T06:32:57;16.10;;;15.00;;
727;SDS011;347;48.780;9.158;2023-05-14T06:35:23;16.03;;;15.13;;
727;SDS011;347;48.780;9.158;2023-05-14T06:37:48;14.83;;;14.03;;
727;SDS011;347;48.780;9.158;2023-05-14T06:40:14;15.80;;;15.00;;
727;SDS011;347;48.780;9.158;2023-05-14T06:42:40;16.07;;;15.13;;
727;SDS011;347;48.780;9.158;2023-05-14T06:45:06;15.70;;;14.80;;
727;SDS011;347;48.780;9.158;2023-05-14T06:47:32;15.50;;;14.60;;
727;SDS011;347;48.780;9.158;2023-05-14T06:49:57;16.03;;;14.73;;
727;SDS011;347;48.780;9.158;2023-05-14T06:52:25;15.47;;;14.63;;
727;SDS011;347;48.780;9.158;2023-05-14T06:54:50;16.43;;;15.50;;
727;SDS011;347;48.780;9.158;2023-05-14T06:57:16;15.60;;;14.50;;
727;SDS011;347;48.780;9.158;2023-05-14T06:59:41;16.63;;;15.63;;
727;SDS011;347;48.780;9.158;2023-05-14T07:02:07;14.60;;;13.70;;
727;SDS011;347;48.780;9.158;2023-05-14T07:04:32;14.87;;;13.97;;
727;SDS011;347;48.780;9.158;2023-05-14T07:06:58;14.70;;;13.80;;
727;SDS011;347;48.780;9.158;2023-05-14T07:09:23;15.00;;;14.20;;
727;SDS011;347;48.780;9.158;2023-05-14T07:11:49;15.40;;;14.50;;
727;SDS011;347;48.780;9.158;2023-05-14T07:14:15;15.30;;;14.33;;
727;SDS011;347;48.780;9.158;2023-05-14T07:16:40;16.37;;;15.37;;
727;SDS011;347;48.780;9.158;2023-05-14T07:19:06;16.20;;;15.17;;
727;SDS011;347;48.780;9.158;2023-05-14T07:21:33;15.77;;;14.77;;
727;SDS011;347;48.780;9.158;2023-05-14T07:23:59;14.20;;;13.40;;
727;SDS011;347;48.780;9.158;2023-05-14T07:26:25;16.17;;;15.17;;
727;SDS011;347;48.780;9.158;2023-05-14T07:28:50;15.73;;;14.83;;
727;SDS011;347;48.780;9.158;2023-05-14T07:31:16;15.97;;;14.87;;
727;SDS011;347;48.780;9.158;2023-05-14T07:33:41;17.17;;;16.07;;
727;SDS011;347;48.780;9.158;2023-05-14T07:36:07;16.47;;;15.53;;
727;SDS011;347;48.780;9.158;2023-05-14T07:38:33;15.50;;;14.60;;
727;SDS011;347;48.780;9.158;2023-05-14T07:40:58;16.80;;;15.80;;
727;SDS011;347;48.780;9.158;2023-05-14T07:43:24;15.80;;;14.80;;
727;SDS011;347;48.780;9.158;2023-05-14T07:45:50;15.10;;;14.20;;
727;SDS011;347;48.780;9.158;2023-05-14T07:48:15;15.60;;;14.70;;
727;SDS011;347;48.780;9.158;2023-05-14T07:50:41;15.03;;;14.13;;
727;SDS011;347;48.780;9.158;2023-05-14T07:53:06;15.33;;;14.43;;
727;SDS011;347;48.780;9.158;2023-05-14T07:55:32;16.00;;;15.00;;
727;SDS011;347;48.780;9.158;2023-05-14T07:57:57;15.73;;;14.33;;
727;SDS011;347;48.780;9.158;2023-05-14T08:00:23;16.17;;;15.17;;
727;SDS011;347;48.780;9.158;2023-05-14T08:02:49;16.10;;;15.10;;
727;SDS011;347;48.780;9.158;2023-05-14T08:05:15;15.60;;;14.60;;
727;SDS011;347;48.780;9.158;2023-05-14T08:07:41;15.40;;;14.37;;
727;SDS011;347;48.780;9.158;2023-05-14T08:10:07;17.37;;;16.13;;
727;SDS011;347;48.780;9.158;2023-05-14T08:12:33;17.10;;;16.00;;
727;SDS011;347;48.780;9.158;2023-05-14T08:14:59;16.00;;;15.10;;
727;SDS011;347;48.780;9.158;2023-05-14T08:17:24;16.77;;;15.77;;
727;SDS011;347;48.780;9.158;2023-05-14T08:19:50;16.37;;;15.17;;
727;SDS011;347;48.780;9.158;2023-05-14T08:22:15;17.17;;;16.17;;
727;SDS011;347;48.780;9.158;2023-05-14T08:24:41;16.63;;;15.63;;
727;SDS011;347;48.780;9.158;2023-05-14T08:27:07;15.67;;;14.70;;
727;SDS011;347;48.780;9.158;2023-05-14T08:29:33;15.90;;;14.93;;
727;SDS011;347;48.780;9.158;2023-05-14T08:31:59;16.10;;;15.10;;
727;SDS011;347;48.780;9.158;2023-05-14T08:34:24;15.67;;;14.77;;
727;SDS011;347;48.780;9.158;2023-05-14T08:36:50;16.33;;;15.33;;
727;SDS011;347;48.780;9.158;2023-05-14T08:39:15;16.93;;;15.83;;
727;SDS011;347;48.780;9.158;2023-05-14T08:41:41;15.97;;;14.97;;
727;SDS011;347;48.780;9.158;2023-05-14T08:44:14;17.37;;;16.37;;
727;SDS011;347;48.780;9.158;2023-05-14T08:46:43;17.90;;;16.70;;
727;SDS011;347;48.780;9.158;2023-05-14T08:51:41;19.00;;;17.70;;
727;SDS011;347;48.780;9.158;2023-05-14T08:54:08;17.17;;;16.07;;
727;SDS011;347;48.780;9.158;2023-05-14T08:56:38;16.60;;;15.60;;
727;SDS011;347;48.780;9.158;2023-05-14T08:59:05;17.30;;;16.30;;
727;SDS011;347;48.780;9.158;2023-05-14T09:01:31;16.30;;;15.30;;
727;SDS011;347;48.780;9.158;2023-05-14T09:03:57;16.97;;;15.97;;
727;SDS011;347;48.780;9.158;2023-05-14T09:06:25;17.57;;;16.53;;
727;SDS011;347;48.780;9.158;2023-05-14T09:08:51;18.30;;;17.20;;
727;SDS011;347;48.780;9.158;2023-05-14T09:11:17;17.07;;;15.97;;
727;SDS011;347;48.780;9.158;2023-05-14T09:13:43;17.40;;;16.23;;
727;SDS011;347;48.780;9.158;2023-05-14T09:16:08;18.50;;;17.30;;
727;SDS011;347;48.780;9.158;2023-05-14T09:18:34;20.23;;;18.90;;
727;SDS011;347;48.780;9.158;2023-05-14T09:21:00;18.47;;;17.17;;
727;SDS011;347;48.780;9.158;2023-05-14T09:23:26;17.83;;;16.73;;
727;SDS011;347;48.780;9.158;2023-05-14T09:25:57;16.10;;;15.10;;
727;SDS011;347;48.780;9.158;2023-05-14T09:28:23;18.17;;;16.90;;
727;SDS011;347;48.780;9.158;2023-05-14T09:30:51;17.67;;;16.37;;
727;SDS011;347;48.780;9.158;2023-05-14T09:33:26;18.13;;;16.83;;
727;SDS011;347;48.780;9.158;2023-05-14T09:35:59;18.33;;;17.13;;
727;SDS011;347;48.780;9.158;2023-05-14T09:38:29;17.67;;;16.47;;
727;SDS011;347;48.780;9.158;2023-05-14T09:40:56;18.00;;;16.80;;
727;SDS011;347;48.780;9.158;2023-05-14T09:43:22;18.60;;;17.50;;
727;SDS011;347;48.780;9.158;2023-05-14T09:45:48;15.10;;;14.20;;
727;SDS011;347;48.780;9.158;2023-05-14T09:48:14;15.23;;;14.33;;
727;SDS011;347;48.780;9.158;2023-05-14T09:50:43;16.23;;;15.20;;
727;SDS011;347;48.780;9.158;2023-05-14T09:53:10;15.00;;;14.10;;
727;SDS011;347;48.780;9.158;2023-05-14T09:55:37;14.27;;;13.47;;
727;SDS011;347;48.780;9.158;2023-05-14T09:58:03;15.60;;;14.70;;
727;SDS011;347;48.780;9.158;2023-05-14T10:00:30;14.30;;;13.33;;
727;SDS011;347;48.780;9.158;2023-05-14T10:02:57;14.93;;;14.03;;
727;SDS011;347;48.780;9.158;2023-05-14T10:05:23;15.33;;;14.43;;
727;SDS011;347;48.780;9.158;2023-05-14T10:07:50;15.20;;;14.30;;
727;SDS011;347;48.780;9.158;2023-05-14T10:10:20;15.20;;;14.20;;
727;SDS011;347;48.780;9.158;2023-05-14T10:13:02;15.27;;;14.37;;
727;SDS011;347;48.780;9.158;2023-05-14T10:15:32;14.00;;;13.20;;
727;SDS011;347;48.780;9.158;2023-05-14T10:18:02;13.83;;;12.90;;
727;SDS011;347;48.780;9.158;2023-05-14T10:20:33;15.20;;;13.97;;
727;SDS011;347;48.780;9.158;2023-05-14T10:23:00;14.13;;;13.27;;
727;SDS011;347;48.780;9.158;2023-05-14T10:25:26;14.27;;;13.37;;
727;SDS011;347;48.780;9.158;2023-05-14T10:27:52;13.50;;;12.70;;
727;SDS011;347;48.780;9.158;2023-05-14T10:30:19;13.10;;;12.30;;
727;SDS011;347;48.780;9.158;2023-05-14T10:32:46;14.50;;;13.50;;
727;SDS011;347;48.780;9.158;2023-05-14T10:35:16;13.87;;;13.07;;
727;SDS011;347;48.780;9.158;2023-05-14T10:37:44;15.47;;;14.40;;
727;SDS011;347;48.780;9.158;2023-05-14T10:40:13;14.90;;;13.90;;
727;SDS011;347;48.780;9.158;2023-05-14T10:42:39;14.70;;;13.60;;
727;SDS011;347;48.780;9.158;2023-05-14T10:45:07;14.27;;;13.37;;
727;SDS011;347;48.780;9.158;2023-05-14T10:47:35;14.13;;;13.30;;
727;SDS011;347;48.780;9.158;2023-05-14T10:50:04;12.43;;;11.63;;
727;SDS011;347;48.780;9.158;2023-05-14T10:52:31;13.10;;;12.40;;
727;SDS011;347;48.780;9.158;2023-05-14T10:54:59;13.73;;;12.90;;
727;SDS011;347;48.780;9.158;2023-05-14T10:57:28;12.57;;;11.80;;
727;SDS011;347;48.780;9.158;2023-05-14T10:59:56;15.40;;;14.30;;
727;SDS011;347;48.780;9.158;2023-05-14T11:04:59;13.27;;;12.47;;
727;SDS011;347;48.780;9.158;2023-05-14T11:07:31;14.13;;;13.27;;
727;SDS011;347;48.780;9.158;2023-05-14T11:10:04;12.30;;;11.50;;
727;SDS011;347;48.780;9.158;2023-05-14T11:12:35;12.83;;;12.03;;
727;SDS011;347;48.780;9.158;2023-05-14T11:15:03;12.63;;;11.93;;
727;SDS011;347;48.780;9.158;2023-05-14T11:17:31;12.03;;;11.13;;
727;SDS011;347;48.780;9.158;2023-05-14T11:19:58;11.80;;;11.00;;
727;SDS011;347;48.780;9.158;2023-05-14T11:22:24;12.63;;;11.63;;
727;SDS011;347;48.780;9.158;2023-05-14T11:24:50;12.07;;;11.00;;
727;SDS011;347;48.780;9.158;2023-05-14T11:27:16;13.83;;;12.67;;
727;SDS011;347;48.780;9.158;2023-05-14T11:29:42;12.53;;;11.73;;
727;SDS011;347;48.780;9.158;2023-05-14T11:32:10;12.83;;;12.00;;
727;SDS011;347;48.780;9.158;2023-05-14T11:34:36;12.90;;;12.10;;
727;SDS011;347;48.780;9.158;2023-05-14T11:37:02;13.70;;;12.90;;
727;SDS011;347;48.780;9.158;2023-05-14T11:39:29;12.63;;;11.93;;
727;SDS011;347;48.780;9.158;2023-05-14T11:41:58;12.07;;;11.37;;
727;SDS011;347;48.780;9.158;2023-05-14T11:44:26;12.40;;;11.70;;
727;SDS011;347;48.780;9.158;2023-05-14T11:46:55;12.70;;;12.00;;
727;SDS011;347;48.780;9.158;2023-05-14T11:49:22;12.87;;;12.03;;
727;SDS011;347;48.780;9.158;2023-05-14T11:51:48;11.13;;;10.43;;
727;SDS011;347;48.780;9.158;2023-05-14T11:54:15;13.77;;;12.87;;
727;SDS011;347;48.780;9.158;2023-05-14T11:56:40;10.63;;;9.83;;
727;SDS011;347;48.780;9.158;2023-05-14T11:59:06;12.13;;;11.43;;
727;SDS011;347;48.780;9.158;2023-05-14T12:01:35;12.60;;;11.90;;
727;SDS011;347;48.780;9.158;2023-05-14T12:04:02;12.60;;;11.90;;
727;SDS011;347;48.780;9.158;2023-05-14T12:06:31;11.93;;;11.23;;
727;SDS011;347;48.780;9.158;2023-05-14T12:08:57;13.30;;;12.20;;
727;SDS011;347;48.780;9.158;2023-05-14T12:11:22;12.60;;;11.90;;
727;SDS011;347;48.780;9.158;2023-05-14T12:13:49;13.77;;;12.97;;
727;SDS011;347;48.780;9.158;2023-05-14T12:16:19;11.23;;;10.43;;
727;SDS011;347;48.780;9.158;2023-05-14T12:18:44;11.77;;;11.07;;
727;SDS011;347;48.780;9.158;2023-05-14T12:21:10;11.60;;;10.80;;
727;SDS011;347;48.780;9.158;2023-05-14T12:23:37;11.57;;;10.77;;
727;SDS011;347;48.780;9.158;2023-05-14T12:26:03;11.57;;;10.87;;
727;SDS011;347;48.780;9.158;2023-05-14T12:28:30;12.97;;;11.87;;
727;SDS011;347;48.780;9.158;2023-05-14T12:30:56;10.03;;;9.43;;
727;SDS011;347;48.780;9.158;2023-05-14T12:33:24;11.83;;;11.20;;
727;SDS011;347;48.780;9.158;2023-05-14T12:35:54;10.63;;;9.93;;
727;SDS011;347;48.780;9.158;2023-05-14T12:38:25;10.17;;;9.40;;
727;SDS011;347;48.780;9.158;2023-05-14T12:40:51;9.53;;;9.03;;
727;SDS011;347;48.780;9.158;2023-05-14T12:43:17;9.87;;;9.27;;
727;SDS011;347;48.780;9.158;2023-05-14T12:45:42;11.63;;;10.93;;
727;SDS011;347;48.780;9.158;2023-05-14T12:48:08;10.23;;;9.63;;
727;SDS011;347;48.780;9.158;2023-05-14T12:50:34;11.90;;;11.10;;
727;SDS011;347;48.780;9.158;2023-05-14T12:52:59;11.00;;;10.40;;
727;SDS011;347;48.780;9.158;2023-05-14T12:55:25;10.80;;;10.20;;
727;SDS011;347;48.780;9.158;2023-05-14T12:57:50;9.67;;;9.27;;
727;SDS011;347;48.780;9.158;2023-05-14T13:00:16;10.20;;;9.60;;
727;SDS011;347;48.780;9.158;2023-05-14T13:02:42;11.13;;;10.47;;
727;SDS011;347;48.780;9.158;2023-05-14T13:05:07;9.73;;;9.13;;
727;SDS011;347;48.780;9.158;2023-05-14T13:07:33;9.80;;;9.20;;
727;SDS011;347;48.780;9.158;2023-05-14T13:10:00;9.43;;;9.03;;
727;SDS011;347;48.780;9.158;2023-05-14T13:12:25;10.07;;;9.47;;
727;SDS011;347;48.780;9.158;2023-05-14T13:14:51;10.00;;;9.43;;
727;SDS011;347;48.780;9.158;2023-05-14T13:17:17;11.17;;;10.67;;
727;SDS011;347;48.780;9.158;2023-05-14T13:19:42;11.60;;;11.10;;
727;SDS011;347;48.780;9.158;2023-05-14T13:22:08;9.73;;;9.17;;
727;SDS011;347;48.780;9.158;2023-05-14T13:24:34;9.13;;;8.73;;
727;SDS011;347;48.780;9.158;2023-05-14T13:27:00;10.03;;;9.40;;
727;SDS011;347;48.780;9.158;2023-05-14T13:29:25;9.17;;;8.70;;
727;SDS011;347;48.780;9.158;2023-05-14T13:31:53;10.33;;;9.73;;
727;SDS011;347;48.780;9.158;2023-05-14T13:34:19;11.40;;;10.77;;
727;SDS011;347;48.780;9.158;2023-05-14T13:36:44;9.37;;;8.67;;
727;SDS011;347;48.780;9.158;2023-05-14T13:39:11;9.70;;;9.10;;
727;SDS011;347;48.780;9.158;2023-05-14T13:41:36;10.07;;;9.37;;
727;SDS011;347;48.780;9.158;2023-05-14T13:44:03;9.80;;;9.20;;
727;SDS011;347;48.780;9.158;2023-05-14T13:46:28;10.70;;;9.80;;
727;SDS011;347;48.780;9.158;2023-05-14T13:48:54;10.53;;;9.67;;
727;SDS011;347;48.780;9.158;2023-05-14T13:51:20;8.90;;;8.40;;
727;SDS011;347;48.780;9.158;2023-05-14T13:53:46;10.93;;;10.33;;
727;SDS011;347;48.780;9.158;2023-05-14T13:56:12;11.03;;;10.43;;
727;SDS011;347;48.780;9.158;2023-05-14T13:58:37;10.57;;;10.07;;
727;SDS011;347;48.780;9.158;2023-05-14T14:01:03;10.40;;;9.80;;
727;SDS011;347;48.780;9.158;2023-05-14T14:03:29;10.80;;;10.00;;
727;SDS011;347;48.780;9.158;2023-05-14T14:05:54;9.80;;;9.30;;
727;SDS011;347;48.780;9.158;2023-05-14T14:08:20;10.33;;;9.73;;
727;SDS011;347;48.780;9.158;2023-05-14T14:10:46;9.60;;;9.00;;
727;SDS011;347;48.780;9.158;2023-05-14T14:13:11;8.70;;;8.20;;
727;SDS011;347;48.780;9.158;2023-05-14T14:15:37;8.90;;;8.50;;
727;SDS011;347;48.780;9.158;2023-05-14T14:18:03;10.10;;;9.60;;
727;SDS011;347;48.780;9.158;2023-05-14T14:20:29;10.30;;;9.70;;
727;SDS011;347;48.780;9.158;2023-05-14T14:22:55;8.83;;;8.43;;
727;SDS011;347;48.780;9.158;2023-05-14T14:25:21;8.70;;;8.20;;
727;SDS011;347;48.780;9.158;2023-05-14T14:27:46;8.00;;;7.70;;
727;SDS011;347;48.780;9.158;2023-05-14T14:30:12;8.47;;;7.97;;
727;SDS011;347;48.780;9.158;2023-05-14T14:32:42;8.43;;;8.10;;
727;SDS011;347;48.780;9.158;2023-05-14T14:35:09;8.03;;;7.73;;
727;SDS011;347;48.780;9.158;2023-05-14T14:37:36;8.67;;;8.20;;
727;SDS011;347;48.780;9.158;2023-05-14T14:40:02;10.67;;;9.97;;
727;SDS011;347;48.780;9.158;2023-05-14T14:42:31;8.80;;;8.40;;
727;SDS011;347;48.780;9.158;2023-05-14T14:44:57;10.07;;;9.50;;
727;SDS011;347;48.780;9.158;2023-05-14T14:47:23;10.07;;;9.57;;
727;SDS011;347;48.780;9.158;2023-05-14T14:49:48;9.10;;;8.60;;
727;SDS011;347;48.780;9.158;2023-05-14T14:52:14;7.40;;;6.90;;
727;SDS011;347;48.780;9.158;2023-05-14T14:54:39;8.00;;;7.60;;
727;SDS011;347;48.780;9.158;2023-05-14T14:57:05;8.50;;;8.00;;
727;SDS011;347;48.780;9.158;2023-05-14T14:59:30;7.90;;;7.40;;
727;SDS011;347;48.780;9.158;2023-05-14T15:01:56;8.23;;;7.73;;
727;SDS011;347;48.780;9.158;2023-05-14T15:04:21;7.87;;;7.47;;
727;SDS011;347;48.780;9.158;2023-05-14T15:06:47;7.83;;;7.33;;
727;SDS011;347;48.780;9.158;2023-05-14T15:09:12;7.77;;;7.40;;
727;SDS011;347;48.780;9.158;2023-05-14T15:11:38;8.67;;;8.07;;
727;SDS011;347;48.780;9.158;2023-05-14T15:14:04;8.30;;;7.90;;
727;SDS011;347;48.780;9.158;2023-05-14T15:16:30;7.70;;;7.30;;
727;SDS011;347;48.780;9.158;2023-05-14T15:18:55;7.70;;;7.30;;
727;SDS011;347;48.780;9.158;2023-05-14T15:21:21;7.40;;;7.00;;
727;SDS011;347;48.780;9.158;2023-05-14T15:23:46;8.37;;;7.90;;